createdAt,value
2023-12-08T00:01:27.782Z,2.67
2023-12-08T00:03:55.996Z,2.28
2023-12-08T00:06:24.226Z,2.00
2023-12-08T00:08:52.421Z,3.72
2023-12-08T00:11:20.691Z,3.30
2023-12-08T00:13:48.911Z,3.10
2023-12-08T00:16:18.476Z,3.40
2023-12-08T00:18:46.754Z,3.03
2023-12-08T00:21:15.119Z,3.75
2023-12-08T00:23:43.569Z,2.78
2023-12-08T00:26:13.570Z,2.80
2023-12-08T00:28:41.685Z,2.70
2023-12-08T00:31:10.679Z,3.20
2023-12-08T00:33:40.337Z,4.50
2023-12-08T00:36:14.047Z,5.30
2023-12-08T00:38:42.253Z,3.63
2023-12-08T00:41:11.350Z,3.40
2023-12-08T00:43:39.749Z,4.03
2023-12-08T00:46:10.638Z,2.30
2023-12-08T00:48:40.289Z,3.40
2023-12-08T00:51:08.997Z,2.80
2023-12-08T00:53:37.232Z,2.58
2023-12-08T00:56:05.788Z,2.35
2023-12-08T00:58:33.866Z,2.10
2023-12-08T01:01:02.118Z,3.35
2023-12-08T01:03:30.390Z,2.47
2023-12-08T01:06:00.582Z,2.22
2023-12-08T01:08:29.210Z,3.55
2023-12-08T01:10:57.465Z,3.70
2023-12-08T01:13:25.615Z,3.08
2023-12-08T01:15:53.728Z,2.85
2023-12-08T01:18:23.027Z,3.47
2023-12-08T01:20:51.573Z,2.60
2023-12-08T01:23:21.403Z,2.92
2023-12-08T01:25:49.627Z,2.38
2023-12-08T01:28:18.039Z,2.17
2023-12-08T01:30:46.272Z,3.35
2023-12-08T01:33:14.520Z,3.63
2023-12-08T01:35:43.334Z,3.05
2023-12-08T01:38:14.859Z,3.63
2023-12-08T01:40:46.820Z,3.15
2023-12-08T01:43:15.229Z,2.63
2023-12-08T01:45:43.369Z,3.30
2023-12-08T01:48:12.885Z,2.47
2023-12-08T01:50:41.945Z,3.03
2023-12-08T01:53:10.100Z,3.22
2023-12-08T01:55:38.299Z,2.90
2023-12-08T01:58:09.128Z,3.15
2023-12-08T02:00:37.983Z,2.67
2023-12-08T02:03:06.464Z,3.08
2023-12-08T02:05:36.472Z,2.63
2023-12-08T02:08:04.761Z,2.70
2023-12-08T02:10:33.072Z,2.28
2023-12-08T02:13:01.518Z,3.70
2023-12-08T02:15:31.035Z,1.95
2023-12-08T02:17:59.915Z,2.67
2023-12-08T02:20:28.295Z,2.55
2023-12-08T02:22:56.583Z,2.58
2023-12-08T02:25:26.242Z,2.60
2023-12-08T02:27:56.466Z,3.13
2023-12-08T02:30:34.149Z,3.25
2023-12-08T02:33:12.400Z,2.78
2023-12-08T02:35:43.272Z,2.28
2023-12-08T02:38:15.515Z,2.75
2023-12-08T02:40:45.266Z,2.88
2023-12-08T02:43:13.443Z,2.00
2023-12-08T02:45:44.741Z,1.90
2023-12-08T02:48:23.769Z,2.13
2023-12-08T02:50:54.854Z,4.20
2023-12-08T02:53:23.160Z,3.03
2023-12-08T02:55:56.080Z,2.53
2023-12-08T02:58:24.432Z,2.20
2023-12-08T03:00:52.757Z,2.40
2023-12-08T03:03:37.657Z,2.00
2023-12-08T03:06:06.192Z,2.20
2023-12-08T03:08:34.662Z,2.20
2023-12-08T03:11:28.021Z,1.67
2023-12-08T03:13:56.142Z,2.20
2023-12-08T03:16:29.279Z,2.67
2023-12-08T03:19:06.145Z,2.63
2023-12-08T03:21:37.765Z,2.47
2023-12-08T03:26:38.733Z,2.25
2023-12-08T03:29:07.093Z,2.20
2023-12-08T03:31:35.382Z,2.95
2023-12-08T03:34:03.699Z,3.58
2023-12-08T03:36:31.976Z,3.00
2023-12-08T03:39:09.280Z,2.55
2023-12-08T03:41:39.454Z,1.85
2023-12-08T03:44:07.715Z,2.30
2023-12-08T03:46:41.201Z,2.25
2023-12-08T03:49:27.588Z,2.70
2023-12-08T03:51:56.295Z,1.98
2023-12-08T03:54:27.509Z,3.33
2023-12-08T03:56:57.136Z,2.47
2023-12-08T03:59:31.933Z,2.30
2023-12-08T04:02:02.465Z,4.68
2023-12-08T04:04:54.617Z,2.80
2023-12-08T04:07:23.298Z,3.03
2023-12-08T04:10:19.366Z,3.00
2023-12-08T04:13:09.859Z,2.53
2023-12-08T04:15:38.129Z,1.83
2023-12-08T04:18:08.106Z,2.15
2023-12-08T04:20:44.656Z,2.60
2023-12-08T04:23:21.399Z,2.70
2023-12-08T04:25:59.492Z,2.45
2023-12-08T04:28:37.467Z,2.33
2023-12-08T04:31:22.130Z,3.15
2023-12-08T04:33:50.683Z,2.33
2023-12-08T04:36:21.542Z,3.45
2023-12-08T04:38:56.256Z,2.33
2023-12-08T04:41:36.725Z,3.13
2023-12-08T04:44:26.829Z,2.90
2023-12-08T04:46:57.744Z,2.95
2023-12-08T04:49:28.654Z,2.45
2023-12-08T04:52:00.104Z,2.80
2023-12-08T04:57:09.482Z,3.00
2023-12-08T04:59:40.100Z,2.70
2023-12-08T05:02:11.059Z,3.17
2023-12-08T05:04:51.192Z,2.55
2023-12-08T05:07:20.337Z,3.75
2023-12-08T05:09:48.609Z,2.67
2023-12-08T05:12:21.563Z,2.70
2023-12-08T05:14:56.461Z,4.05
2023-12-08T05:17:28.076Z,2.58
2023-12-08T05:20:09.018Z,4.03
2023-12-08T05:22:46.072Z,3.25
2023-12-08T05:25:23.281Z,2.85
2023-12-08T05:28:06.881Z,2.27
2023-12-08T05:31:17.957Z,2.50
2023-12-08T05:33:51.057Z,2.57
2023-12-08T05:36:26.871Z,2.35
2023-12-08T05:38:57.683Z,2.00
2023-12-08T05:41:54.424Z,2.60
2023-12-08T05:44:32.005Z,2.25
2023-12-08T05:47:01.549Z,2.45
2023-12-08T05:52:41.587Z,3.83
2023-12-08T05:55:13.151Z,2.35
2023-12-08T06:00:19.574Z,2.53
2023-12-08T06:03:04.885Z,2.42
2023-12-08T06:06:04.675Z,3.10
2023-12-08T06:08:39.126Z,2.28
2023-12-08T06:11:10.892Z,2.53
2023-12-08T06:14:17.478Z,2.72
2023-12-08T06:17:17.976Z,1.98
2023-12-08T06:20:07.649Z,3.13
2023-12-08T06:22:37.738Z,1.75
2023-12-08T06:28:37.644Z,2.05
2023-12-08T06:31:09.455Z,1.88
2023-12-08T06:36:18.325Z,2.47
2023-12-08T06:39:06.284Z,1.83
2023-12-08T06:41:58.657Z,2.75
2023-12-08T06:44:26.879Z,1.90
2023-12-08T06:47:04.784Z,2.15
2023-12-08T06:49:39.012Z,1.90
2023-12-08T06:54:37.048Z,3.55
2023-12-08T06:57:07.650Z,2.15
2023-12-08T06:59:58.629Z,2.60
2023-12-08T07:02:41.248Z,4.45
2023-12-08T07:05:10.507Z,1.95
2023-12-08T07:10:11.920Z,1.85
2023-12-08T07:12:49.877Z,3.20
2023-12-08T07:15:21.765Z,2.70
2023-12-08T07:18:15.138Z,4.57
2023-12-08T07:20:52.910Z,2.55
2023-12-08T07:23:21.637Z,2.70
2023-12-08T07:25:51.571Z,2.13
2023-12-08T07:28:23.364Z,4.43
2023-12-08T07:30:51.756Z,4.00
2023-12-08T07:33:20.003Z,3.13
2023-12-08T07:35:48.626Z,3.47
2023-12-08T07:38:20.092Z,3.00
2023-12-08T07:43:32.998Z,3.25
2023-12-08T07:46:10.531Z,2.88
2023-12-08T07:49:05.387Z,3.15
2023-12-08T07:51:34.339Z,3.10
2023-12-08T07:54:06.060Z,3.83
2023-12-08T07:56:35.702Z,4.15
2023-12-08T07:59:05.321Z,3.85
2023-12-08T08:01:38.259Z,3.53
2023-12-08T08:04:07.287Z,4.13
2023-12-08T08:06:38.973Z,4.22
2023-12-08T08:09:10.017Z,4.18
2023-12-08T08:11:38.630Z,3.50
2023-12-08T08:17:59.911Z,3.50
2023-12-08T08:20:29.381Z,4.13
2023-12-08T08:22:59.217Z,3.55
2023-12-08T08:25:28.457Z,3.55
2023-12-08T08:27:56.722Z,4.00
2023-12-08T08:30:27.846Z,3.05
2023-12-08T08:32:56.277Z,2.00
2023-12-08T08:55:24.626Z,3.33
2023-12-08T08:57:54.413Z,2.60
2023-12-08T09:00:49.288Z,3.25
2023-12-08T09:03:17.617Z,2.88
2023-12-08T09:05:46.371Z,2.63
2023-12-08T09:08:14.984Z,3.63
2023-12-08T09:10:48.732Z,2.22
2023-12-08T09:15:53.519Z,2.78
2023-12-08T09:18:21.993Z,2.88
2023-12-08T09:20:50.576Z,3.55
2023-12-08T09:23:18.902Z,3.28
2023-12-08T09:25:48.641Z,2.47
2023-12-08T09:28:23.485Z,2.63
2023-12-08T09:30:54.224Z,2.80
2023-12-08T09:33:25.347Z,2.63
2023-12-08T09:38:30.739Z,2.72
2023-12-08T09:41:05.915Z,2.88
2023-12-08T09:43:41.776Z,2.97
2023-12-08T09:46:13.079Z,3.60
2023-12-08T09:48:43.583Z,2.85
2023-12-08T09:51:13.405Z,2.73
2023-12-08T09:53:42.969Z,3.13
2023-12-08T09:56:16.628Z,3.15
2023-12-08T09:58:46.647Z,2.50
2023-12-08T10:01:18.569Z,1.92
2023-12-08T10:03:49.492Z,2.63
2023-12-08T10:06:18.034Z,4.47
2023-12-08T10:08:47.061Z,2.03
2023-12-08T10:11:17.138Z,3.42
2023-12-08T10:13:45.550Z,2.88
2023-12-08T10:16:14.126Z,2.50
2023-12-08T10:18:42.375Z,3.05
2023-12-08T10:21:18.280Z,2.55
2023-12-08T10:24:00.425Z,2.28
2023-12-08T10:26:38.089Z,2.95
2023-12-08T10:29:06.598Z,2.10
2023-12-08T10:31:34.854Z,2.50
2023-12-08T10:34:06.940Z,2.45
2023-12-08T10:36:35.690Z,2.85
2023-12-08T10:39:11.326Z,1.95
2023-12-08T10:41:50.464Z,2.92
2023-12-08T10:44:26.413Z,2.55
2023-12-08T10:47:00.349Z,2.35
2023-12-08T10:49:30.104Z,2.00
2023-12-08T10:52:04.382Z,2.10
2023-12-08T10:54:35.326Z,2.22
2023-12-08T10:57:21.644Z,3.00
2023-12-08T10:59:55.672Z,3.20
2023-12-08T11:02:36.194Z,1.88
2023-12-08T11:05:20.797Z,2.90
2023-12-08T11:07:57.064Z,1.55
2023-12-08T11:10:32.088Z,1.77
2023-12-08T11:13:10.558Z,1.83
2023-12-08T11:15:48.754Z,2.42
2023-12-08T11:18:25.562Z,2.33
2023-12-08T11:20:56.734Z,2.40
2023-12-08T11:23:35.266Z,1.98
2023-12-08T11:26:10.567Z,2.47
2023-12-08T11:28:50.384Z,2.08
2023-12-08T11:31:26.783Z,1.50
2023-12-08T11:34:10.539Z,4.13
2023-12-08T11:36:45.463Z,3.15
2023-12-08T11:39:42.944Z,3.28
2023-12-08T11:42:18.315Z,2.55
2023-12-08T11:44:49.074Z,2.00
2023-12-08T11:47:20.541Z,2.00
2023-12-08T11:52:21.555Z,2.00
2023-12-08T11:55:22.908Z,2.97
2023-12-08T11:58:10.848Z,2.25
2023-12-08T12:00:50.719Z,1.77
2023-12-08T12:03:19.565Z,2.47
2023-12-08T12:05:55.561Z,1.63
2023-12-08T12:08:28.386Z,2.42
2023-12-08T12:11:04.473Z,2.15
2023-12-08T12:13:45.428Z,2.00
2023-12-08T12:16:17.931Z,1.93
2023-12-08T12:18:46.365Z,1.95
2023-12-08T12:21:16.656Z,1.50
2023-12-08T12:23:47.786Z,1.38
2023-12-08T12:26:22.035Z,2.22
2023-12-08T12:28:55.405Z,2.45
2023-12-08T12:31:30.308Z,1.75
2023-12-08T12:33:59.306Z,1.67
2023-12-08T12:36:31.298Z,1.98
2023-12-08T12:38:59.954Z,2.55
2023-12-08T12:44:03.217Z,2.28
2023-12-08T12:46:45.289Z,2.40
2023-12-08T12:49:19.967Z,2.25
2023-12-08T12:51:48.137Z,2.30
2023-12-08T12:54:32.367Z,2.72
2023-12-08T12:57:01.276Z,2.00
2023-12-08T12:59:42.072Z,4.35
2023-12-08T13:02:23.347Z,2.45
2023-12-08T13:04:51.864Z,2.50
2023-12-08T13:07:28.073Z,2.13
2023-12-08T13:09:56.567Z,2.67
2023-12-08T13:12:24.752Z,4.28
2023-12-08T13:14:53.132Z,2.30
2023-12-08T13:17:23.451Z,1.85
2023-12-08T13:20:01.563Z,2.58
2023-12-08T13:22:50.497Z,2.10
2023-12-08T13:25:18.730Z,2.13
2023-12-08T13:27:47.154Z,2.20
2023-12-08T13:30:20.474Z,2.10
2023-12-08T13:32:57.087Z,2.05
2023-12-08T13:35:34.672Z,2.35
2023-12-08T13:38:08.371Z,2.80
2023-12-08T13:40:36.770Z,2.78
2023-12-08T13:43:05.029Z,3.08
2023-12-08T13:45:37.991Z,2.55
2023-12-08T13:48:07.954Z,2.45
2023-12-08T13:50:50.511Z,1.90
2023-12-08T13:53:57.101Z,3.13
2023-12-08T13:56:49.389Z,2.17
2023-12-08T13:59:32.793Z,1.88
2023-12-08T14:02:06.855Z,2.47
2023-12-08T14:04:45.338Z,2.22
2023-12-08T14:07:25.745Z,2.72
2023-12-08T14:09:54.398Z,2.85
2023-12-08T14:12:36.564Z,2.97
2023-12-08T14:15:05.867Z,3.60
2023-12-08T14:17:34.682Z,2.38
2023-12-08T14:20:04.608Z,2.60
2023-12-08T14:22:33.112Z,5.18
2023-12-08T14:25:02.224Z,2.97
2023-12-08T14:27:34.664Z,3.15
2023-12-08T14:30:08.655Z,2.35
2023-12-08T14:32:42.905Z,2.65
2023-12-08T14:35:26.782Z,4.72
2023-12-08T14:37:59.247Z,3.13
2023-12-08T14:40:40.384Z,3.58
2023-12-08T14:43:45.567Z,2.72
2023-12-08T14:46:21.188Z,4.20
2023-12-08T14:48:53.717Z,9.65
2023-12-08T14:51:27.738Z,4.55
2023-12-08T14:53:58.822Z,2.80
2023-12-08T14:56:29.005Z,4.45
2023-12-08T14:59:01.042Z,2.47
2023-12-08T15:01:29.611Z,2.80
2023-12-08T15:04:11.919Z,2.15
2023-12-08T15:06:41.648Z,2.10
2023-12-08T15:09:10.333Z,3.20
2023-12-08T15:11:38.620Z,2.30
2023-12-08T15:14:13.497Z,3.28
2023-12-08T15:16:45.690Z,3.10
2023-12-08T15:19:14.698Z,3.40
2023-12-08T15:21:46.493Z,3.65
2023-12-08T15:24:23.311Z,2.95
2023-12-08T15:26:54.546Z,3.88
2023-12-08T15:29:41.531Z,4.47
2023-12-08T15:32:12.885Z,3.60
2023-12-08T15:34:41.772Z,2.85
2023-12-08T15:37:17.218Z,3.15
2023-12-08T15:39:47.744Z,3.58
2023-12-08T15:42:16.342Z,2.80
2023-12-08T15:44:45.438Z,4.78
2023-12-08T15:47:14.338Z,9.45
2023-12-08T15:49:43.401Z,8.95
2023-12-08T15:52:13.453Z,8.93
2023-12-08T15:54:54.444Z,5.43
2023-12-08T15:57:22.664Z,6.30
2023-12-08T15:59:51.168Z,4.60
2023-12-08T16:02:20.095Z,5.63
2023-12-08T16:04:55.693Z,6.00
2023-12-08T16:08:00.853Z,4.97
2023-12-08T16:10:29.274Z,5.25
2023-12-08T16:13:00.200Z,4.53
2023-12-08T16:15:28.512Z,3.55
2023-12-08T16:17:59.772Z,5.18
2023-12-08T16:20:39.338Z,5.28
2023-12-08T16:23:09.371Z,3.65
2023-12-08T16:25:41.473Z,3.35
2023-12-08T16:28:09.716Z,4.18
2023-12-08T16:30:41.457Z,5.55
2023-12-08T16:33:36.730Z,2.80
2023-12-08T16:36:14.640Z,3.15
2023-12-08T16:38:53.297Z,3.83
2023-12-08T16:41:38.469Z,2.63
2023-12-08T16:44:16.194Z,2.88
2023-12-08T16:46:46.857Z,2.95
2023-12-08T16:49:19.022Z,3.20
2023-12-08T16:52:01.235Z,3.47
2023-12-08T16:54:31.170Z,6.05
2023-12-08T16:57:02.429Z,3.42
2023-12-08T16:59:36.735Z,7.20
2023-12-08T17:02:17.004Z,3.80
2023-12-08T17:04:54.395Z,2.97
2023-12-08T17:07:31.324Z,3.10
2023-12-08T17:10:10.579Z,4.53
2023-12-08T17:12:41.893Z,3.38
2023-12-08T17:15:21.525Z,5.18
2023-12-08T17:17:57.006Z,3.70
2023-12-08T17:20:26.040Z,3.50
2023-12-08T17:23:05.945Z,3.72
2023-12-08T17:25:42.045Z,3.40
2023-12-08T17:28:10.545Z,6.95
2023-12-08T17:30:55.828Z,5.90
2023-12-08T17:33:27.197Z,13.18
2023-12-08T17:35:55.515Z,7.00
2023-12-08T17:38:23.780Z,10.30
2023-12-08T17:40:53.993Z,7.93
2023-12-08T17:43:22.842Z,11.25
2023-12-08T17:45:53.668Z,6.38
2023-12-08T17:48:22.065Z,13.50
2023-12-08T17:50:50.934Z,17.80
2023-12-08T17:53:22.896Z,14.73
2023-12-08T17:56:13.948Z,7.50
2023-12-08T17:58:44.072Z,6.60
2023-12-08T18:01:25.155Z,3.92
2023-12-08T18:04:20.835Z,4.82
2023-12-08T18:06:58.481Z,4.13
2023-12-08T18:09:26.932Z,5.05
2023-12-08T18:14:47.322Z,4.13
2023-12-08T18:17:18.998Z,3.53
2023-12-08T18:19:53.122Z,5.50
2023-12-08T18:22:23.344Z,4.47
2023-12-08T18:24:56.262Z,4.53
2023-12-08T18:27:38.110Z,4.25
2023-12-08T18:30:28.640Z,5.13
2023-12-08T18:32:57.852Z,5.28
2023-12-08T18:35:37.487Z,3.35
2023-12-08T18:38:13.757Z,4.85
2023-12-08T18:40:42.131Z,4.32
2023-12-08T18:43:12.048Z,5.53
2023-12-08T18:45:50.163Z,4.30
2023-12-08T18:48:18.604Z,4.70
2023-12-08T18:50:47.701Z,4.15
2023-12-08T18:53:16.359Z,3.35
2023-12-08T18:58:45.974Z,4.15
2023-12-08T19:01:17.278Z,3.60
2023-12-08T19:03:47.480Z,4.80
2023-12-08T19:06:19.100Z,4.30
2023-12-08T19:09:05.604Z,4.22
2023-12-08T19:11:41.584Z,4.25
2023-12-08T19:14:46.146Z,4.13
2023-12-08T19:17:15.991Z,4.07
2023-12-08T19:19:53.496Z,3.83
2023-12-08T19:22:27.621Z,4.13
2023-12-08T19:25:07.907Z,5.63
2023-12-08T19:27:36.358Z,4.45
2023-12-08T19:30:17.417Z,3.72
2023-12-08T19:32:52.576Z,3.60
2023-12-08T19:35:24.817Z,3.67
2023-12-08T19:37:57.297Z,4.63
2023-12-08T19:41:16.066Z,3.72
2023-12-08T19:43:51.260Z,3.58
2023-12-08T19:46:26.624Z,3.13
2023-12-08T19:49:13.559Z,4.10
2023-12-08T19:51:51.785Z,3.42
2023-12-08T19:54:41.045Z,3.65
2023-12-08T19:57:59.092Z,4.55
2023-12-08T20:00:42.100Z,3.65
2023-12-08T20:03:12.065Z,3.90
2023-12-08T20:05:40.623Z,4.47
2023-12-08T20:08:41.480Z,4.05
2023-12-08T20:11:11.717Z,4.50
2023-12-08T20:13:43.886Z,4.28
2023-12-08T20:16:12.308Z,5.53
2023-12-08T20:18:42.741Z,4.05
2023-12-08T20:21:11.039Z,5.32
2023-12-08T20:23:39.241Z,5.25
2023-12-08T20:26:09.522Z,3.47
2023-12-08T20:28:39.021Z,3.65
2023-12-08T20:31:27.571Z,5.07
2023-12-08T20:34:03.996Z,5.28
2023-12-08T20:36:45.163Z,5.35
2023-12-08T20:39:21.148Z,4.95
2023-12-08T20:41:50.155Z,4.35
2023-12-08T20:44:46.368Z,3.50
2023-12-08T20:47:17.983Z,3.38
2023-12-08T20:50:03.406Z,3.15
2023-12-08T20:53:40.416Z,3.38
2023-12-08T20:55:56.499Z,4.03
2023-12-08T20:58:41.977Z,3.45
2023-12-08T21:01:10.798Z,3.30
2023-12-08T21:03:41.009Z,3.53
2023-12-08T21:06:21.641Z,3.40
2023-12-08T21:08:53.118Z,5.35
2023-12-08T21:14:07.157Z,3.38
2023-12-08T21:16:36.305Z,3.08
2023-12-08T21:19:27.882Z,3.40
2023-12-08T21:22:16.262Z,3.95
2023-12-08T21:24:52.916Z,4.45
2023-12-08T21:27:24.157Z,3.53
2023-12-08T21:32:24.756Z,2.67
2023-12-08T21:35:02.214Z,4.43
2023-12-08T21:37:33.978Z,2.85
2023-12-08T21:42:45.182Z,3.28
2023-12-08T21:45:37.979Z,2.50
2023-12-08T21:48:18.488Z,3.38
2023-12-08T21:50:47.199Z,3.22
2023-12-08T21:53:19.759Z,2.72
2023-12-08T21:55:47.979Z,3.42
2023-12-08T21:58:16.231Z,3.25
2023-12-08T22:00:59.458Z,3.17
2023-12-08T22:03:29.086Z,5.43
2023-12-08T22:05:58.433Z,2.88
2023-12-08T22:08:28.720Z,3.13
2023-12-08T22:10:57.469Z,2.63
2023-12-08T22:13:29.243Z,3.85
2023-12-08T22:15:58.071Z,3.47
2023-12-08T22:18:26.420Z,4.10
2023-12-08T22:20:54.987Z,3.58
2023-12-08T22:23:33.249Z,3.20
2023-12-08T22:26:25.898Z,4.68
2023-12-08T22:29:21.909Z,3.10
2023-12-08T22:31:52.672Z,2.63
2023-12-08T22:34:22.564Z,2.78
2023-12-08T22:36:51.536Z,3.25
2023-12-08T22:39:21.333Z,3.53
2023-12-08T22:41:57.362Z,3.70
2023-12-08T22:44:28.850Z,2.90
2023-12-08T22:47:03.679Z,3.15
2023-12-08T22:49:41.144Z,2.17
2023-12-08T22:52:13.332Z,3.25
2023-12-08T22:54:43.771Z,3.05
2023-12-08T22:57:23.066Z,3.70
2023-12-08T23:00:01.335Z,2.45
2023-12-08T23:02:29.788Z,2.28
2023-12-08T23:05:05.095Z,3.75
2023-12-08T23:07:57.633Z,3.15
2023-12-08T23:10:27.396Z,3.90
2023-12-08T23:13:10.907Z,3.03
2023-12-08T23:15:39.407Z,3.67
2023-12-08T23:18:15.766Z,3.20
2023-12-08T23:20:47.094Z,2.75
2023-12-08T23:23:18.840Z,4.38
2023-12-08T23:26:01.186Z,3.10
2023-12-08T23:28:46.003Z,3.45
2023-12-08T23:31:14.929Z,3.28
2023-12-08T23:33:43.397Z,3.22
2023-12-08T23:36:12.403Z,3.25
2023-12-08T23:38:46.479Z,3.70
2023-12-08T23:41:16.129Z,3.17
2023-12-08T23:43:44.495Z,3.35
2023-12-08T23:46:12.894Z,3.20
2023-12-08T23:48:48.079Z,3.67
2023-12-08T23:51:22.238Z,4.60
2023-12-08T23:53:54.517Z,3.30
2023-12-08T23:56:24.292Z,3.85
2023-12-08T23:58:53.323Z,2.85
